sensor_id;sensor_type;location;lat;lon;timestamp;temperature;humidity
5059;DHT22;2548;52.050;11.036;2023-02-28T00:01:21;-1.00;99.90
5059;DHT22;2548;52.050;11.036;2023-02-28T00:03:49;-0.90;99.90
5059;DHT22;2548;52.050;11.036;2023-02-28T00:06:16;-1.00;99.90
5059;DHT22;2548;52.050;11.036;2023-02-28T00:08:46;-0.90;99.90
5059;DHT22;2548;52.050;11.036;2023-02-28T00:11:15;-1.00;99.90
5059;DHT22;2548;52.050;11.036;2023-02-28T00:13:44;-0.90;99.90
5059;DHT22;2548;52.050;11.036;2023-02-28T00:16:18;-0.80;99.90
5059;DHT22;2548;52.050;11.036;2023-02-28T00:18:46;-0.90;99.90
5059;DHT22;2548;52.050;11.036;2023-02-28T00:21:15;-0.90;99.90
5059;DHT22;2548;52.050;11.036;2023-02-28T00:23:42;-0.90;99.90
5059;DHT22;2548;52.050;11.036;2023-02-28T00:26:18;-0.80;99.90
5059;DHT22;2548;52.050;11.036;2023-02-28T00:28:48;-0.80;99.90
5059;DHT22;2548;52.050;11.036;2023-02-28T00:31:16;-0.90;99.90
5059;DHT22;2548;52.050;11.036;2023-02-28T00:33:46;-0.90;99.90
5059;DHT22;2548;52.050;11.036;2023-02-28T00:36:14;-0.90;99.90
5059;DHT22;2548;52.050;11.036;2023-02-28T00:38:42;-0.90;99.90
5059;DHT22;2548;52.050;11.036;2023-02-28T00:41:09;-0.90;99.90
5059;DHT22;2548;52.050;11.036;2023-02-28T00:43:41;-0.90;99.90
5059;DHT22;2548;52.050;11.036;2023-02-28T00:46:12;-0.90;99.90
5059;DHT22;2548;52.050;11.036;2023-02-28T00:48:43;-0.80;99.90
5059;DHT22;2548;52.050;11.036;2023-02-28T00:51:13;-0.80;99.90
5059;DHT22;2548;52.050;11.036;2023-02-28T00:53:41;-0.80;99.90
5059;DHT22;2548;52.050;11.036;2023-02-28T00:56:10;-0.80;99.90
5059;DHT22;2548;52.050;11.036;2023-02-28T00:58:38;-0.80;99.90
5059;DHT22;2548;52.050;11.036;2023-02-28T01:01:13;-0.80;99.90
5059;DHT22;2548;52.050;11.036;2023-02-28T01:03:41;-0.70;99.90
5059;DHT22;2548;52.050;11.036;2023-02-28T01:06:08;-0.60;99.90
5059;DHT22;2548;52.050;11.036;2023-02-28T01:08:44;-0.60;99.90
5059;DHT22;2548;52.050;11.036;2023-02-28T01:11:24;-0.60;99.90
5059;DHT22;2548;52.050;11.036;2023-02-28T01:13:53;-0.60;99.90
5059;DHT22;2548;52.050;11.036;2023-02-28T01:16:22;-0.60;99.90
5059;DHT22;2548;52.050;11.036;2023-02-28T01:18:49;-0.60;99.90
5059;DHT22;2548;52.050;11.036;2023-02-28T01:21:19;-0.50;99.90
5059;DHT22;2548;52.050;11.036;2023-02-28T01:23:47;-0.40;99.90
5059;DHT22;2548;52.050;11.036;2023-02-28T01:26:16;-0.50;99.90
5059;DHT22;2548;52.050;11.036;2023-02-28T01:28:50;-0.50;99.90
5059;DHT22;2548;52.050;11.036;2023-02-28T01:31:20;-0.60;99.90
5059;DHT22;2548;52.050;11.036;2023-02-28T01:33:52;-0.60;99.90
5059;DHT22;2548;52.050;11.036;2023-02-28T01:36:20;-0.60;99.90
5059;DHT22;2548;52.050;11.036;2023-02-28T01:38:51;-0.60;99.90
5059;DHT22;2548;52.050;11.036;2023-02-28T01:41:22;-0.60;99.90
5059;DHT22;2548;52.050;11.036;2023-02-28T01:43:59;-0.60;99.90
5059;DHT22;2548;52.050;11.036;2023-02-28T01:46:31;-0.60;99.90
5059;DHT22;2548;52.050;11.036;2023-02-28T01:49:07;-0.70;99.90
5059;DHT22;2548;52.050;11.036;2023-02-28T01:51:40;-0.70;99.90
5059;DHT22;2548;52.050;11.036;2023-02-28T01:54:14;-0.80;99.90
5059;DHT22;2548;52.050;11.036;2023-02-28T01:56:48;-0.80;99.90
5059;DHT22;2548;52.050;11.036;2023-02-28T01:59:24;-0.80;99.90
5059;DHT22;2548;52.050;11.036;2023-02-28T02:01:56;-0.90;99.90
5059;DHT22;2548;52.050;11.036;2023-02-28T02:04:26;-0.90;99.90
5059;DHT22;2548;52.050;11.036;2023-02-28T02:07:00;-0.80;99.90
5059;DHT22;2548;52.050;11.036;2023-02-28T02:09:28;-0.80;99.90
5059;DHT22;2548;52.050;11.036;2023-02-28T02:11:56;-0.80;99.90
5059;DHT22;2548;52.050;11.036;2023-02-28T02:14:35;-0.80;99.90
5059;DHT22;2548;52.050;11.036;2023-02-28T02:17:19;-0.80;99.90
5059;DHT22;2548;52.050;11.036;2023-02-28T02:20:29;-0.80;99.90
5059;DHT22;2548;52.050;11.036;2023-02-28T02:23:37;-0.80;99.90
5059;DHT22;2548;52.050;11.036;2023-02-28T02:26:29;-0.80;99.90
5059;DHT22;2548;52.050;11.036;2023-02-28T02:29:21;-0.80;99.90
5059;DHT22;2548;52.050;11.036;2023-02-28T02:34:58;-0.80;99.90
5059;DHT22;2548;52.050;11.036;2023-02-28T02:37:37;-0.80;99.90
5059;DHT22;2548;52.050;11.036;2023-02-28T02:40:14;-0.80;99.90
5059;DHT22;2548;52.050;11.036;2023-02-28T02:42:49;-0.80;99.90
5059;DHT22;2548;52.050;11.036;2023-02-28T02:45:24;-0.90;99.90
5059;DHT22;2548;52.050;11.036;2023-02-28T02:47:54;-0.80;99.90
5059;DHT22;2548;52.050;11.036;2023-02-28T02:50:26;-0.70;99.90
5059;DHT22;2548;52.050;11.036;2023-02-28T02:53:02;-0.80;99.90
5059;DHT22;2548;52.050;11.036;2023-02-28T02:55:34;-0.80;99.90
5059;DHT22;2548;52.050;11.036;2023-02-28T02:58:10;-0.80;99.90
5059;DHT22;2548;52.050;11.036;2023-02-28T03:00:42;-0.80;99.90
5059;DHT22;2548;52.050;11.036;2023-02-28T03:03:18;-0.80;99.90
5059;DHT22;2548;52.050;11.036;2023-02-28T03:05:55;-0.80;99.90
5059;DHT22;2548;52.050;11.036;2023-02-28T03:08:27;-0.80;99.90
5059;DHT22;2548;52.050;11.036;2023-02-28T03:11:00;-0.80;99.90
5059;DHT22;2548;52.050;11.036;2023-02-28T03:13:43;-0.80;99.90
5059;DHT22;2548;52.050;11.036;2023-02-28T03:16:36;-0.80;99.90
5059;DHT22;2548;52.050;11.036;2023-02-28T03:19:28;-0.80;99.90
5059;DHT22;2548;52.050;11.036;2023-02-28T03:22:14;-0.80;99.90
5059;DHT22;2548;52.050;11.036;2023-02-28T03:24:48;-0.80;99.90
5059;DHT22;2548;52.050;11.036;2023-02-28T03:27:23;-0.70;99.90
5059;DHT22;2548;52.050;11.036;2023-02-28T03:29:58;-0.70;99.90
5059;DHT22;2548;52.050;11.036;2023-02-28T03:32:32;-0.70;99.90
5059;DHT22;2548;52.050;11.036;2023-02-28T03:35:05;-0.70;99.90
5059;DHT22;2548;52.050;11.036;2023-02-28T03:37:39;-0.70;99.90
5059;DHT22;2548;52.050;11.036;2023-02-28T03:40:11;-0.70;99.90
5059;DHT22;2548;52.050;11.036;2023-02-28T03:42:42;-0.70;99.90
5059;DHT22;2548;52.050;11.036;2023-02-28T03:45:14;-0.60;99.90
5059;DHT22;2548;52.050;11.036;2023-02-28T03:47:49;-0.60;99.90
5059;DHT22;2548;52.050;11.036;2023-02-28T03:50:20;-0.60;99.90
5059;DHT22;2548;52.050;11.036;2023-02-28T03:52:54;-0.50;99.90
5059;DHT22;2548;52.050;11.036;2023-02-28T03:55:29;-0.40;99.90
5059;DHT22;2548;52.050;11.036;2023-02-28T03:58:01;-0.50;99.90
5059;DHT22;2548;52.050;11.036;2023-02-28T04:00:34;-0.50;99.90
5059;DHT22;2548;52.050;11.036;2023-02-28T04:03:03;-0.60;99.90
5059;DHT22;2548;52.050;11.036;2023-02-28T04:05:30;-0.60;99.90
5059;DHT22;2548;52.050;11.036;2023-02-28T04:08:05;-0.60;99.90
5059;DHT22;2548;52.050;11.036;2023-02-28T04:10:33;-0.50;99.90
5059;DHT22;2548;52.050;11.036;2023-02-28T04:13:01;-0.50;99.90
5059;DHT22;2548;52.050;11.036;2023-02-28T04:15:28;-0.50;99.90
5059;DHT22;2548;52.050;11.036;2023-02-28T04:17:56;-0.50;99.90
5059;DHT22;2548;52.050;11.036;2023-02-28T04:20:23;-0.40;99.90
5059;DHT22;2548;52.050;11.036;2023-02-28T04:22:50;-0.50;99.90
5059;DHT22;2548;52.050;11.036;2023-02-28T04:25:19;-0.50;99.90
5059;DHT22;2548;52.050;11.036;2023-02-28T04:27:49;-0.50;99.90
5059;DHT22;2548;52.050;11.036;2023-02-28T04:30:16;-0.50;99.90
5059;DHT22;2548;52.050;11.036;2023-02-28T04:32:44;-0.50;99.90
5059;DHT22;2548;52.050;11.036;2023-02-28T04:35:11;-0.50;99.90
5059;DHT22;2548;52.050;11.036;2023-02-28T04:37:38;-0.50;99.90
5059;DHT22;2548;52.050;11.036;2023-02-28T04:40:07;-0.50;99.90
5059;DHT22;2548;52.050;11.036;2023-02-28T04:42:36;-0.50;99.90
5059;DHT22;2548;52.050;11.036;2023-02-28T04:45:04;-0.60;99.90
5059;DHT22;2548;52.050;11.036;2023-02-28T04:47:32;-0.60;99.90
5059;DHT22;2548;52.050;11.036;2023-02-28T04:50:00;-0.60;99.90
5059;DHT22;2548;52.050;11.036;2023-02-28T04:52:27;-0.60;99.90
5059;DHT22;2548;52.050;11.036;2023-02-28T04:54:55;-0.60;99.90
5059;DHT22;2548;52.050;11.036;2023-02-28T04:57:22;-0.60;99.90
5059;DHT22;2548;52.050;11.036;2023-02-28T04:59:51;-0.60;99.90
5059;DHT22;2548;52.050;11.036;2023-02-28T05:02:18;-0.60;99.90
5059;DHT22;2548;52.050;11.036;2023-02-28T05:04:47;-0.60;99.90
5059;DHT22;2548;52.050;11.036;2023-02-28T05:07:14;-0.60;99.90
5059;DHT22;2548;52.050;11.036;2023-02-28T05:09:42;-0.60;99.90
5059;DHT22;2548;52.050;11.036;2023-02-28T05:12:09;-0.60;99.90
5059;DHT22;2548;52.050;11.036;2023-02-28T05:14:37;-0.70;99.90
5059;DHT22;2548;52.050;11.036;2023-02-28T05:17:05;-0.70;99.90
5059;DHT22;2548;52.050;11.036;2023-02-28T05:19:33;-0.70;99.90
5059;DHT22;2548;52.050;11.036;2023-02-28T05:22:00;-0.70;99.90
5059;DHT22;2548;52.050;11.036;2023-02-28T05:24:29;-0.70;99.90
5059;DHT22;2548;52.050;11.036;2023-02-28T05:26:56;-0.70;99.90
5059;DHT22;2548;52.050;11.036;2023-02-28T05:29:24;-0.70;99.90
5059;DHT22;2548;52.050;11.036;2023-02-28T05:31:51;-0.70;99.90
5059;DHT22;2548;52.050;11.036;2023-02-28T05:34:20;-0.60;99.90
5059;DHT22;2548;52.050;11.036;2023-02-28T05:36:48;-0.70;99.90
5059;DHT22;2548;52.050;11.036;2023-02-28T05:39:15;-0.60;99.90
5059;DHT22;2548;52.050;11.036;2023-02-28T05:41:43;-0.60;99.90
5059;DHT22;2548;52.050;11.036;2023-02-28T05:44:11;-0.60;99.90
5059;DHT22;2548;52.050;11.036;2023-02-28T05:46:38;-0.60;99.90
5059;DHT22;2548;52.050;11.036;2023-02-28T05:49:05;-0.60;99.90
5059;DHT22;2548;52.050;11.036;2023-02-28T05:51:34;-0.60;99.90
5059;DHT22;2548;52.050;11.036;2023-02-28T05:54:05;-0.60;99.90
5059;DHT22;2548;52.050;11.036;2023-02-28T05:56:33;-0.60;99.90
5059;DHT22;2548;52.050;11.036;2023-02-28T05:59:01;-0.60;99.90
5059;DHT22;2548;52.050;11.036;2023-02-28T06:01:34;-0.60;99.90
5059;DHT22;2548;52.050;11.036;2023-02-28T06:04:03;-0.60;99.90
5059;DHT22;2548;52.050;11.036;2023-02-28T06:06:30;-0.60;99.90
5059;DHT22;2548;52.050;11.036;2023-02-28T06:09:01;-0.50;99.90
5059;DHT22;2548;52.050;11.036;2023-02-28T06:11:29;-0.50;99.90
5059;DHT22;2548;52.050;11.036;2023-02-28T06:13:57;-0.60;99.90
5059;DHT22;2548;52.050;11.036;2023-02-28T06:16:26;-0.60;99.90
5059;DHT22;2548;52.050;11.036;2023-02-28T06:18:53;-0.60;99.90
5059;DHT22;2548;52.050;11.036;2023-02-28T06:21:22;-0.60;99.90
5059;DHT22;2548;52.050;11.036;2023-02-28T06:23:50;-0.60;99.90
5059;DHT22;2548;52.050;11.036;2023-02-28T06:26:19;-0.60;99.90
5059;DHT22;2548;52.050;11.036;2023-02-28T06:28:47;-0.60;99.90
5059;DHT22;2548;52.050;11.036;2023-02-28T06:31:17;-0.60;99.90
5059;DHT22;2548;52.050;11.036;2023-02-28T06:33:45;-0.60;99.90
5059;DHT22;2548;52.050;11.036;2023-02-28T06:36:14;-0.60;99.90
5059;DHT22;2548;52.050;11.036;2023-02-28T06:38:42;-0.50;99.90
5059;DHT22;2548;52.050;11.036;2023-02-28T06:41:11;-0.50;99.90
5059;DHT22;2548;52.050;11.036;2023-02-28T06:43:41;-0.40;99.90
5059;DHT22;2548;52.050;11.036;2023-02-28T06:46:11;-0.30;99.90
5059;DHT22;2548;52.050;11.036;2023-02-28T06:48:39;-0.30;99.90
5059;DHT22;2548;52.050;11.036;2023-02-28T06:51:08;-0.20;99.90
5059;DHT22;2548;52.050;11.036;2023-02-28T06:53:36;-0.20;99.90
5059;DHT22;2548;52.050;11.036;2023-02-28T06:56:05;-0.20;99.90
5059;DHT22;2548;52.050;11.036;2023-02-28T06:58:33;-0.10;99.90
5059;DHT22;2548;52.050;11.036;2023-02-28T07:01:02;-0.10;99.90
5059;DHT22;2548;52.050;11.036;2023-02-28T07:03:30;-0.10;99.90
5059;DHT22;2548;52.050;11.036;2023-02-28T07:05:57;-0.10;99.90
5059;DHT22;2548;52.050;11.036;2023-02-28T07:08:25;-0.10;99.90
5059;DHT22;2548;52.050;11.036;2023-02-28T07:10:54;-0.10;99.90
5059;DHT22;2548;52.050;11.036;2023-02-28T07:13:22;0.00;99.90
5059;DHT22;2548;52.050;11.036;2023-02-28T07:15:53;0.00;99.90
5059;DHT22;2548;52.050;11.036;2023-02-28T07:18:23;0.00;99.90
5059;DHT22;2548;52.050;11.036;2023-02-28T07:20:51;0.00;99.90
5059;DHT22;2548;52.050;11.036;2023-02-28T07:23:19;0.00;99.90
5059;DHT22;2548;52.050;11.036;2023-02-28T07:25:46;0.10;99.90
5059;DHT22;2548;52.050;11.036;2023-02-28T07:28:14;0.20;99.90
5059;DHT22;2548;52.050;11.036;2023-02-28T07:30:42;0.20;99.90
5059;DHT22;2548;52.050;11.036;2023-02-28T07:33:09;0.30;99.90
5059;DHT22;2548;52.050;11.036;2023-02-28T07:35:38;0.40;99.90
5059;DHT22;2548;52.050;11.036;2023-02-28T07:38:06;0.50;99.90
5059;DHT22;2548;52.050;11.036;2023-02-28T07:40:35;0.50;99.90
5059;DHT22;2548;52.050;11.036;2023-02-28T07:43:03;0.60;99.90
5059;DHT22;2548;52.050;11.036;2023-02-28T07:45:30;0.60;99.90
5059;DHT22;2548;52.050;11.036;2023-02-28T07:48:00;0.60;99.90
5059;DHT22;2548;52.050;11.036;2023-02-28T07:50:28;0.80;99.90
5059;DHT22;2548;52.050;11.036;2023-02-28T07:52:58;0.80;99.90
5059;DHT22;2548;52.050;11.036;2023-02-28T07:55:26;0.90;99.90
5059;DHT22;2548;52.050;11.036;2023-02-28T07:57:53;0.90;99.90
5059;DHT22;2548;52.050;11.036;2023-02-28T08:00:22;1.00;99.90
5059;DHT22;2548;52.050;11.036;2023-02-28T08:02:49;1.00;99.90
5059;DHT22;2548;52.050;11.036;2023-02-28T08:05:17;1.10;99.90
5059;DHT22;2548;52.050;11.036;2023-02-28T08:07:44;1.20;99.90
5059;DHT22;2548;52.050;11.036;2023-02-28T08:10:15;1.30;99.90
5059;DHT22;2548;52.050;11.036;2023-02-28T08:12:43;1.30;99.90
5059;DHT22;2548;52.050;11.036;2023-02-28T08:15:10;1.40;99.90
5059;DHT22;2548;52.050;11.036;2023-02-28T08:17:38;1.50;99.90
5059;DHT22;2548;52.050;11.036;2023-02-28T08:20:07;1.50;99.90
5059;DHT22;2548;52.050;11.036;2023-02-28T08:22:35;1.60;99.90
5059;DHT22;2548;52.050;11.036;2023-02-28T08:25:03;1.70;99.90
5059;DHT22;2548;52.050;11.036;2023-02-28T08:27:31;1.70;99.90
5059;DHT22;2548;52.050;11.036;2023-02-28T08:29:59;1.80;99.90
5059;DHT22;2548;52.050;11.036;2023-02-28T08:32:27;1.90;99.90
5059;DHT22;2548;52.050;11.036;2023-02-28T08:34:54;1.90;99.90
5059;DHT22;2548;52.050;11.036;2023-02-28T08:37:22;1.90;99.90
5059;DHT22;2548;52.050;11.036;2023-02-28T08:39:49;2.00;99.90
5059;DHT22;2548;52.050;11.036;2023-02-28T08:42:17;2.10;99.90
5059;DHT22;2548;52.050;11.036;2023-02-28T08:44:46;2.20;99.90
5059;DHT22;2548;52.050;11.036;2023-02-28T08:47:13;2.20;99.90
5059;DHT22;2548;52.050;11.036;2023-02-28T08:49:41;2.30;99.90
5059;DHT22;2548;52.050;11.036;2023-02-28T08:52:09;2.40;99.90
5059;DHT22;2548;52.050;11.036;2023-02-28T08:54:36;2.50;99.90
5059;DHT22;2548;52.050;11.036;2023-02-28T08:57:04;2.50;99.90
5059;DHT22;2548;52.050;11.036;2023-02-28T08:59:32;2.60;99.90
5059;DHT22;2548;52.050;11.036;2023-02-28T09:02:01;2.60;99.90
5059;DHT22;2548;52.050;11.036;2023-02-28T09:04:29;2.70;99.90
5059;DHT22;2548;52.050;11.036;2023-02-28T09:06:57;2.70;99.90
5059;DHT22;2548;52.050;11.036;2023-02-28T09:09:25;2.80;99.90
5059;DHT22;2548;52.050;11.036;2023-02-28T09:11:52;2.80;99.90
5059;DHT22;2548;52.050;11.036;2023-02-28T09:14:22;2.80;99.90
5059;DHT22;2548;52.050;11.036;2023-02-28T09:16:49;3.00;99.90
5059;DHT22;2548;52.050;11.036;2023-02-28T09:19:18;3.00;99.90
5059;DHT22;2548;52.050;11.036;2023-02-28T09:21:45;3.10;99.90
5059;DHT22;2548;52.050;11.036;2023-02-28T09:24:13;3.20;99.90
5059;DHT22;2548;52.050;11.036;2023-02-28T09:26:41;3.20;99.90
5059;DHT22;2548;52.050;11.036;2023-02-28T09:29:09;3.20;99.90
5059;DHT22;2548;52.050;11.036;2023-02-28T09:31:37;3.30;99.90
5059;DHT22;2548;52.050;11.036;2023-02-28T09:34:04;3.30;99.90
5059;DHT22;2548;52.050;11.036;2023-02-28T09:36:34;3.40;99.90
5059;DHT22;2548;52.050;11.036;2023-02-28T09:39:01;3.50;99.90
5059;DHT22;2548;52.050;11.036;2023-02-28T09:41:32;3.60;99.90
5059;DHT22;2548;52.050;11.036;2023-02-28T09:44:09;3.60;99.90
5059;DHT22;2548;52.050;11.036;2023-02-28T09:46:40;3.70;99.90
5059;DHT22;2548;52.050;11.036;2023-02-28T09:49:12;3.80;99.90
5059;DHT22;2548;52.050;11.036;2023-02-28T09:51:49;3.80;99.90
5059;DHT22;2548;52.050;11.036;2023-02-28T09:54:19;3.90;99.90
5059;DHT22;2548;52.050;11.036;2023-02-28T09:56:50;3.80;99.90
5059;DHT22;2548;52.050;11.036;2023-02-28T09:59:31;3.90;99.90
5059;DHT22;2548;52.050;11.036;2023-02-28T10:02:13;4.00;99.90
5059;DHT22;2548;52.050;11.036;2023-02-28T10:04:47;4.10;99.90
5059;DHT22;2548;52.050;11.036;2023-02-28T10:07:45;4.10;99.90
5059;DHT22;2548;52.050;11.036;2023-02-28T10:10:21;4.10;99.90
5059;DHT22;2548;52.050;11.036;2023-02-28T10:12:52;4.20;99.90
5059;DHT22;2548;52.050;11.036;2023-02-28T10:15:22;4.30;99.90
5059;DHT22;2548;52.050;11.036;2023-02-28T10:17:54;4.30;99.90
5059;DHT22;2548;52.050;11.036;2023-02-28T10:20:24;4.30;99.90
5059;DHT22;2548;52.050;11.036;2023-02-28T10:23:02;4.30;99.90
5059;DHT22;2548;52.050;11.036;2023-02-28T10:25:34;4.40;99.90
5059;DHT22;2548;52.050;11.036;2023-02-28T10:28:09;4.40;99.90
5059;DHT22;2548;52.050;11.036;2023-02-28T10:30:39;4.60;99.90
5059;DHT22;2548;52.050;11.036;2023-02-28T10:33:17;4.50;99.90
5059;DHT22;2548;52.050;11.036;2023-02-28T10:35:46;4.50;99.90
5059;DHT22;2548;52.050;11.036;2023-02-28T10:38:18;4.40;99.90
5059;DHT22;2548;52.050;11.036;2023-02-28T10:40:46;4.50;99.90
5059;DHT22;2548;52.050;11.036;2023-02-28T10:43:21;4.50;99.90
5059;DHT22;2548;52.050;11.036;2023-02-28T10:45:59;4.60;99.90
5059;DHT22;2548;52.050;11.036;2023-02-28T10:48:35;4.70;99.90
5059;DHT22;2548;52.050;11.036;2023-02-28T10:51:04;4.80;99.90
5059;DHT22;2548;52.050;11.036;2023-02-28T10:53:38;4.80;99.90
5059;DHT22;2548;52.050;11.036;2023-02-28T10:56:15;4.70;99.90
5059;DHT22;2548;52.050;11.036;2023-02-28T10:58:54;4.70;99.90
5059;DHT22;2548;52.050;11.036;2023-02-28T11:01:24;4.80;99.90
5059;DHT22;2548;52.050;11.036;2023-02-28T11:03:53;4.70;99.90
5059;DHT22;2548;52.050;11.036;2023-02-28T11:06:22;4.80;99.90
5059;DHT22;2548;52.050;11.036;2023-02-28T11:08:53;4.90;99.90
5059;DHT22;2548;52.050;11.036;2023-02-28T11:11:24;5.00;99.90
5059;DHT22;2548;52.050;11.036;2023-02-28T11:13:54;5.20;99.90
5059;DHT22;2548;52.050;11.036;2023-02-28T11:16:32;5.20;99.90
5059;DHT22;2548;52.050;11.036;2023-02-28T11:19:02;5.10;99.90
5059;DHT22;2548;52.050;11.036;2023-02-28T11:21:33;5.10;99.90
5059;DHT22;2548;52.050;11.036;2023-02-28T11:24:05;5.10;99.90
5059;DHT22;2548;52.050;11.036;2023-02-28T11:26:41;5.00;99.90
5059;DHT22;2548;52.050;11.036;2023-02-28T11:29:14;5.20;99.90
5059;DHT22;2548;52.050;11.036;2023-02-28T11:31:43;5.30;99.90
5059;DHT22;2548;52.050;11.036;2023-02-28T11:34:24;5.40;99.90
5059;DHT22;2548;52.050;11.036;2023-02-28T11:36:54;5.40;99.90
5059;DHT22;2548;52.050;11.036;2023-02-28T11:39:24;5.40;99.90
5059;DHT22;2548;52.050;11.036;2023-02-28T11:42:25;5.30;99.90
5059;DHT22;2548;52.050;11.036;2023-02-28T11:45:04;5.20;99.90
5059;DHT22;2548;52.050;11.036;2023-02-28T11:47:40;5.40;99.90
5059;DHT22;2548;52.050;11.036;2023-02-28T11:50:20;5.40;99.90
5059;DHT22;2548;52.050;11.036;2023-02-28T11:52:53;5.30;99.90
5059;DHT22;2548;52.050;11.036;2023-02-28T11:55:25;4.90;99.90
5059;DHT22;2548;52.050;11.036;2023-02-28T11:58:10;4.90;99.90
5059;DHT22;2548;52.050;11.036;2023-02-28T12:00:49;5.00;99.90
5059;DHT22;2548;52.050;11.036;2023-02-28T12:03:27;5.10;99.90
5059;DHT22;2548;52.050;11.036;2023-02-28T12:06:03;5.10;99.90
5059;DHT22;2548;52.050;11.036;2023-02-28T12:08:47;5.20;99.90
5059;DHT22;2548;52.050;11.036;2023-02-28T12:11:26;5.30;99.90
5059;DHT22;2548;52.050;11.036;2023-02-28T12:14:05;5.30;99.90
5059;DHT22;2548;52.050;11.036;2023-02-28T12:16:45;5.20;99.90
5059;DHT22;2548;52.050;11.036;2023-02-28T12:19:20;5.30;99.90
5059;DHT22;2548;52.050;11.036;2023-02-28T12:22:03;5.40;99.90
5059;DHT22;2548;52.050;11.036;2023-02-28T12:24:54;5.40;99.90
5059;DHT22;2548;52.050;11.036;2023-02-28T12:27:26;5.50;99.90
5059;DHT22;2548;52.050;11.036;2023-02-28T12:29:58;5.50;99.90
5059;DHT22;2548;52.050;11.036;2023-02-28T12:32:31;5.60;99.90
5059;DHT22;2548;52.050;11.036;2023-02-28T12:35:02;5.80;99.90
5059;DHT22;2548;52.050;11.036;2023-02-28T12:37:34;5.90;99.90
5059;DHT22;2548;52.050;11.036;2023-02-28T12:40:09;6.10;99.90
5059;DHT22;2548;52.050;11.036;2023-02-28T12:42:42;6.10;99.90
5059;DHT22;2548;52.050;11.036;2023-02-28T12:45:18;6.00;99.90
5059;DHT22;2548;52.050;11.036;2023-02-28T12:47:50;6.00;99.90
5059;DHT22;2548;52.050;11.036;2023-02-28T12:50:18;6.00;99.90
5059;DHT22;2548;52.050;11.036;2023-02-28T12:52:52;5.90;99.90
5059;DHT22;2548;52.050;11.036;2023-02-28T12:55:26;5.90;99.90
5059;DHT22;2548;52.050;11.036;2023-02-28T12:58:04;5.90;99.90
5059;DHT22;2548;52.050;11.036;2023-02-28T13:00:36;5.80;99.90
5059;DHT22;2548;52.050;11.036;2023-02-28T13:03:25;5.90;99.90
5059;DHT22;2548;52.050;11.036;2023-02-28T13:06:16;6.00;99.90
5059;DHT22;2548;52.050;11.036;2023-02-28T13:09:02;6.00;99.90
5059;DHT22;2548;52.050;11.036;2023-02-28T13:11:33;5.90;99.90
5059;DHT22;2548;52.050;11.036;2023-02-28T13:14:04;6.00;99.90
5059;DHT22;2548;52.050;11.036;2023-02-28T13:16:54;5.90;99.90
5059;DHT22;2548;52.050;11.036;2023-02-28T13:19:22;6.00;99.90
5059;DHT22;2548;52.050;11.036;2023-02-28T13:21:51;6.10;99.90
5059;DHT22;2548;52.050;11.036;2023-02-28T13:24:39;6.00;99.90
5059;DHT22;2548;52.050;11.036;2023-02-28T13:27:37;6.00;99.90
5059;DHT22;2548;52.050;11.036;2023-02-28T13:33:37;6.20;99.90
5059;DHT22;2548;52.050;11.036;2023-02-28T13:36:27;6.20;99.90
5059;DHT22;2548;52.050;11.036;2023-02-28T13:38:56;6.20;99.90
5059;DHT22;2548;52.050;11.036;2023-02-28T13:41:43;6.30;99.90
5059;DHT22;2548;52.050;11.036;2023-02-28T13:44:13;6.40;99.90
5059;DHT22;2548;52.050;11.036;2023-02-28T13:50:22;6.50;99.90
5059;DHT22;2548;52.050;11.036;2023-02-28T13:53:14;6.50;99.90
5059;DHT22;2548;52.050;11.036;2023-02-28T13:55:50;6.40;99.90
5059;DHT22;2548;52.050;11.036;2023-02-28T13:58:32;6.30;99.90
5059;DHT22;2548;52.050;11.036;2023-02-28T14:01:31;6.30;99.90
5059;DHT22;2548;52.050;11.036;2023-02-28T14:04:39;6.30;99.90
5059;DHT22;2548;52.050;11.036;2023-02-28T14:07:18;6.30;99.90
5059;DHT22;2548;52.050;11.036;2023-02-28T14:09:55;6.30;99.90
5059;DHT22;2548;52.050;11.036;2023-02-28T14:13:02;6.20;99.90
5059;DHT22;2548;52.050;11.036;2023-02-28T14:15:43;6.20;99.90
5059;DHT22;2548;52.050;11.036;2023-02-28T14:18:17;6.30;99.90
5059;DHT22;2548;52.050;11.036;2023-02-28T14:20:47;6.20;99.90
5059;DHT22;2548;52.050;11.036;2023-02-28T14:23:26;6.20;99.90
5059;DHT22;2548;52.050;11.036;2023-02-28T14:26:03;6.10;99.90
5059;DHT22;2548;52.050;11.036;2023-02-28T14:28:46;6.10;99.90
5059;DHT22;2548;52.050;11.036;2023-02-28T14:31:21;6.00;99.90
5059;DHT22;2548;52.050;11.036;2023-02-28T14:34:12;6.00;99.90
5059;DHT22;2548;52.050;11.036;2023-02-28T14:36:42;6.00;99.90
5059;DHT22;2548;52.050;11.036;2023-02-28T14:39:15;6.00;99.90
5059;DHT22;2548;52.050;11.036;2023-02-28T14:41:44;6.00;99.90
5059;DHT22;2548;52.050;11.036;2023-02-28T14:44:17;5.90;99.90
5059;DHT22;2548;52.050;11.036;2023-02-28T14:46:46;5.90;99.90
5059;DHT22;2548;52.050;11.036;2023-02-28T14:49:24;5.80;99.90
5059;DHT22;2548;52.050;11.036;2023-02-28T14:52:03;5.70;99.90
5059;DHT22;2548;52.050;11.036;2023-02-28T14:54:34;5.70;99.90
5059;DHT22;2548;52.050;11.036;2023-02-28T14:57:02;5.70;99.90
5059;DHT22;2548;52.050;11.036;2023-02-28T14:59:32;5.60;99.90
5059;DHT22;2548;52.050;11.036;2023-02-28T15:02:21;5.60;99.90
5059;DHT22;2548;52.050;11.036;2023-02-28T15:04:56;5.60;99.90
5059;DHT22;2548;52.050;11.036;2023-02-28T15:07:24;5.60;99.90
5059;DHT22;2548;52.050;11.036;2023-02-28T15:10:17;5.50;99.90
5059;DHT22;2548;52.050;11.036;2023-02-28T15:12:50;5.50;99.90
5059;DHT22;2548;52.050;11.036;2023-02-28T15:15:19;5.40;99.90
5059;DHT22;2548;52.050;11.036;2023-02-28T15:17:51;5.40;99.90
5059;DHT22;2548;52.050;11.036;2023-02-28T15:20:21;5.40;99.90
5059;DHT22;2548;52.050;11.036;2023-02-28T15:22:51;5.40;99.90
5059;DHT22;2548;52.050;11.036;2023-02-28T15:25:22;5.30;99.90
5059;DHT22;2548;52.050;11.036;2023-02-28T15:27:52;5.20;99.90
5059;DHT22;2548;52.050;11.036;2023-02-28T15:30:25;5.20;99.90
5059;DHT22;2548;52.050;11.036;2023-02-28T15:33:07;5.20;99.90
5059;DHT22;2548;52.050;11.036;2023-02-28T15:35:38;5.20;99.90
5059;DHT22;2548;52.050;11.036;2023-02-28T15:38:15;5.20;99.90
5059;DHT22;2548;52.050;11.036;2023-02-28T15:40:45;5.20;99.90
5059;DHT22;2548;52.050;11.036;2023-02-28T15:43:24;5.20;99.90
5059;DHT22;2548;52.050;11.036;2023-02-28T15:45:54;5.20;99.90
5059;DHT22;2548;52.050;11.036;2023-02-28T15:48:24;5.20;99.90
5059;DHT22;2548;52.050;11.036;2023-02-28T15:50:54;5.20;99.90
5059;DHT22;2548;52.050;11.036;2023-02-28T15:53:24;5.10;99.90
5059;DHT22;2548;52.050;11.036;2023-02-28T15:55:57;5.10;99.90
5059;DHT22;2548;52.050;11.036;2023-02-28T15:58:26;5.00;99.90
5059;DHT22;2548;52.050;11.036;2023-02-28T16:01:05;5.00;99.90
5059;DHT22;2548;52.050;11.036;2023-02-28T16:03:40;4.80;99.90
5059;DHT22;2548;52.050;11.036;2023-02-28T16:08:51;4.60;99.90
5059;DHT22;2548;52.050;11.036;2023-02-28T16:11:21;4.50;99.90
5059;DHT22;2548;52.050;11.036;2023-02-28T16:13:50;4.40;99.90
5059;DHT22;2548;52.050;11.036;2023-02-28T16:16:19;4.20;99.90
5059;DHT22;2548;52.050;11.036;2023-02-28T16:18:47;4.20;99.90
5059;DHT22;2548;52.050;11.036;2023-02-28T16:21:14;4.10;99.90
5059;DHT22;2548;52.050;11.036;2023-02-28T16:23:42;3.90;99.90
5059;DHT22;2548;52.050;11.036;2023-02-28T16:26:19;3.90;99.90
5059;DHT22;2548;52.050;11.036;2023-02-28T16:28:48;3.80;99.90
5059;DHT22;2548;52.050;11.036;2023-02-28T16:31:16;3.70;99.90
5059;DHT22;2548;52.050;11.036;2023-02-28T16:33:44;3.60;99.90
5059;DHT22;2548;52.050;11.036;2023-02-28T16:36:17;3.50;99.90
5059;DHT22;2548;52.050;11.036;2023-02-28T16:38:44;3.50;99.90
5059;DHT22;2548;52.050;11.036;2023-02-28T16:41:14;3.40;99.90